sensor_id;sensor_type;location;lat;lon;timestamp;temperature;humidity
75430;DHT22;64127;51.488;5.462;2024-03-02T00:02:11;10.40;99.90
75430;DHT22;64127;51.488;5.462;2024-03-02T00:04:45;10.40;99.90
75430;DHT22;64127;51.488;5.462;2024-03-02T00:07:17;10.40;99.90
75430;DHT22;64127;51.488;5.462;2024-03-02T00:09:53;10.40;99.90
75430;DHT22;64127;51.488;5.462;2024-03-02T00:12:26;10.40;99.90
75430;DHT22;64127;51.488;5.462;2024-03-02T00:14:59;10.30;99.90
75430;DHT22;64127;51.488;5.462;2024-03-02T00:17:34;10.30;99.90
75430;DHT22;64127;51.488;5.462;2024-03-02T00:20:09;10.10;99.90
75430;DHT22;64127;51.488;5.462;2024-03-02T00:22:42;9.90;99.90
75430;DHT22;64127;51.488;5.462;2024-03-02T00:25:14;9.60;99.90
75430;DHT22;64127;51.488;5.462;2024-03-02T00:27:48;9.40;99.90
75430;DHT22;64127;51.488;5.462;2024-03-02T00:33:44;9.20;99.90
75430;DHT22;64127;51.488;5.462;2024-03-02T00:36:26;9.10;99.90
75430;DHT22;64127;51.488;5.462;2024-03-02T00:38:59;9.00;99.90
75430;DHT22;64127;51.488;5.462;2024-03-02T00:41:31;9.00;99.90
75430;DHT22;64127;51.488;5.462;2024-03-02T00:44:06;8.90;99.90
75430;DHT22;64127;51.488;5.462;2024-03-02T00:46:41;8.90;99.90
75430;DHT22;64127;51.488;5.462;2024-03-02T00:49:20;8.90;99.90
75430;DHT22;64127;51.488;5.462;2024-03-02T00:51:54;8.90;99.90
75430;DHT22;64127;51.488;5.462;2024-03-02T00:54:27;8.80;99.90
75430;DHT22;64127;51.488;5.462;2024-03-02T00:57:00;8.90;99.90
75430;DHT22;64127;51.488;5.462;2024-03-02T00:59:33;8.90;99.90
75430;DHT22;64127;51.488;5.462;2024-03-02T01:02:05;8.90;99.90
75430;DHT22;64127;51.488;5.462;2024-03-02T01:04:37;8.80;99.90
75430;DHT22;64127;51.488;5.462;2024-03-02T01:07:09;8.90;99.90
75430;DHT22;64127;51.488;5.462;2024-03-02T01:09:41;8.90;99.90
75430;DHT22;64127;51.488;5.462;2024-03-02T01:12:13;8.80;99.90
75430;DHT22;64127;51.488;5.462;2024-03-02T01:14:45;8.80;99.90
75430;DHT22;64127;51.488;5.462;2024-03-02T01:17:17;8.90;99.90
75430;DHT22;64127;51.488;5.462;2024-03-02T01:19:50;8.90;99.90
75430;DHT22;64127;51.488;5.462;2024-03-02T01:22:23;8.90;99.90
75430;DHT22;64127;51.488;5.462;2024-03-02T01:24:57;8.90;99.90
75430;DHT22;64127;51.488;5.462;2024-03-02T01:27:29;8.90;99.90
75430;DHT22;64127;51.488;5.462;2024-03-02T01:30:01;9.00;99.90
75430;DHT22;64127;51.488;5.462;2024-03-02T01:32:33;9.00;99.90
75430;DHT22;64127;51.488;5.462;2024-03-02T01:35:06;9.00;99.90
75430;DHT22;64127;51.488;5.462;2024-03-02T01:37:39;9.00;99.90
75430;DHT22;64127;51.488;5.462;2024-03-02T01:40:11;9.00;99.90
75430;DHT22;64127;51.488;5.462;2024-03-02T01:42:43;9.00;99.90
75430;DHT22;64127;51.488;5.462;2024-03-02T01:45:16;9.00;99.90
75430;DHT22;64127;51.488;5.462;2024-03-02T01:47:48;9.00;99.90
75430;DHT22;64127;51.488;5.462;2024-03-02T01:50:28;9.00;99.90
75430;DHT22;64127;51.488;5.462;2024-03-02T01:53:02;9.00;99.90
75430;DHT22;64127;51.488;5.462;2024-03-02T01:55:35;8.90;99.90
75430;DHT22;64127;51.488;5.462;2024-03-02T01:58:07;9.00;99.90
75430;DHT22;64127;51.488;5.462;2024-03-02T02:00:39;9.00;99.90
75430;DHT22;64127;51.488;5.462;2024-03-02T02:03:11;9.00;99.90
75430;DHT22;64127;51.488;5.462;2024-03-02T02:05:43;9.00;99.90
75430;DHT22;64127;51.488;5.462;2024-03-02T02:08:16;8.90;99.90
75430;DHT22;64127;51.488;5.462;2024-03-02T02:10:48;8.90;99.90
75430;DHT22;64127;51.488;5.462;2024-03-02T02:13:21;8.90;99.90
75430;DHT22;64127;51.488;5.462;2024-03-02T02:15:53;8.90;99.90
75430;DHT22;64127;51.488;5.462;2024-03-02T02:18:25;8.90;99.90
75430;DHT22;64127;51.488;5.462;2024-03-02T02:20:57;8.90;99.90
75430;DHT22;64127;51.488;5.462;2024-03-02T02:23:30;8.90;99.90
75430;DHT22;64127;51.488;5.462;2024-03-02T02:26:02;8.80;99.90
75430;DHT22;64127;51.488;5.462;2024-03-02T02:28:35;8.80;99.90
75430;DHT22;64127;51.488;5.462;2024-03-02T02:31:07;8.80;99.90
75430;DHT22;64127;51.488;5.462;2024-03-02T02:33:40;8.80;99.90
75430;DHT22;64127;51.488;5.462;2024-03-02T02:36:12;8.80;99.90
75430;DHT22;64127;51.488;5.462;2024-03-02T02:38:46;8.80;99.90
75430;DHT22;64127;51.488;5.462;2024-03-02T02:41:20;8.80;99.90
75430;DHT22;64127;51.488;5.462;2024-03-02T02:43:52;8.80;99.90
75430;DHT22;64127;51.488;5.462;2024-03-02T02:46:24;8.80;99.90
75430;DHT22;64127;51.488;5.462;2024-03-02T02:48:56;8.70;99.90
75430;DHT22;64127;51.488;5.462;2024-03-02T02:51:29;8.70;99.90
75430;DHT22;64127;51.488;5.462;2024-03-02T02:54:01;8.80;99.90
75430;DHT22;64127;51.488;5.462;2024-03-02T02:56:33;8.80;99.90
75430;DHT22;64127;51.488;5.462;2024-03-02T02:59:05;8.70;99.90
75430;DHT22;64127;51.488;5.462;2024-03-02T03:01:37;8.70;99.90
75430;DHT22;64127;51.488;5.462;2024-03-02T03:04:09;8.70;99.90
75430;DHT22;64127;51.488;5.462;2024-03-02T03:06:41;8.70;99.90
75430;DHT22;64127;51.488;5.462;2024-03-02T03:09:13;8.60;99.90
75430;DHT22;64127;51.488;5.462;2024-03-02T03:11:45;8.70;99.90
75430;DHT22;64127;51.488;5.462;2024-03-02T03:14:18;8.70;99.90
75430;DHT22;64127;51.488;5.462;2024-03-02T03:16:50;8.70;99.90
75430;DHT22;64127;51.488;5.462;2024-03-02T03:19:22;8.60;99.90
75430;DHT22;64127;51.488;5.462;2024-03-02T03:21:54;8.70;99.90
75430;DHT22;64127;51.488;5.462;2024-03-02T03:24:26;8.60;99.90
75430;DHT22;64127;51.488;5.462;2024-03-02T03:26:58;8.60;99.90
75430;DHT22;64127;51.488;5.462;2024-03-02T03:29:30;8.60;99.90
75430;DHT22;64127;51.488;5.462;2024-03-02T03:32:02;8.60;99.90
75430;DHT22;64127;51.488;5.462;2024-03-02T03:34:35;8.60;99.90
75430;DHT22;64127;51.488;5.462;2024-03-02T03:37:07;8.60;99.90
75430;DHT22;64127;51.488;5.462;2024-03-02T03:39:39;8.60;99.90
75430;DHT22;64127;51.488;5.462;2024-03-02T03:42:11;8.60;99.90
75430;DHT22;64127;51.488;5.462;2024-03-02T03:44:43;8.60;99.90
75430;DHT22;64127;51.488;5.462;2024-03-02T03:47:16;8.60;99.90
75430;DHT22;64127;51.488;5.462;2024-03-02T03:49:48;8.60;99.90
75430;DHT22;64127;51.488;5.462;2024-03-02T03:52:20;8.60;99.90
75430;DHT22;64127;51.488;5.462;2024-03-02T03:54:52;8.60;99.90
75430;DHT22;64127;51.488;5.462;2024-03-02T03:57:25;8.60;99.90
75430;DHT22;64127;51.488;5.462;2024-03-02T03:59:57;8.60;99.90
75430;DHT22;64127;51.488;5.462;2024-03-02T04:02:29;8.60;99.90
75430;DHT22;64127;51.488;5.462;2024-03-02T04:05:01;8.60;99.90
75430;DHT22;64127;51.488;5.462;2024-03-02T04:07:37;8.60;99.90
75430;DHT22;64127;51.488;5.462;2024-03-02T04:10:12;8.60;99.90
75430;DHT22;64127;51.488;5.462;2024-03-02T04:12:44;8.60;99.90
75430;DHT22;64127;51.488;5.462;2024-03-02T04:15:16;8.60;99.90
75430;DHT22;64127;51.488;5.462;2024-03-02T04:17:50;8.60;99.90
75430;DHT22;64127;51.488;5.462;2024-03-02T04:20:22;8.60;99.90
75430;DHT22;64127;51.488;5.462;2024-03-02T04:22:54;8.50;99.90
75430;DHT22;64127;51.488;5.462;2024-03-02T04:25:26;8.50;99.90
75430;DHT22;64127;51.488;5.462;2024-03-02T04:27:58;8.50;99.90
75430;DHT22;64127;51.488;5.462;2024-03-02T04:30:30;8.50;99.90
75430;DHT22;64127;51.488;5.462;2024-03-02T04:33:03;8.50;99.90
75430;DHT22;64127;51.488;5.462;2024-03-02T04:35:38;8.50;99.90
75430;DHT22;64127;51.488;5.462;2024-03-02T04:38:11;8.50;99.90
75430;DHT22;64127;51.488;5.462;2024-03-02T04:40:43;8.50;99.90
75430;DHT22;64127;51.488;5.462;2024-03-02T04:43:15;8.50;99.90
75430;DHT22;64127;51.488;5.462;2024-03-02T04:45:48;8.50;99.90
75430;DHT22;64127;51.488;5.462;2024-03-02T04:48:20;8.60;99.90
75430;DHT22;64127;51.488;5.462;2024-03-02T04:50:53;8.50;99.90
75430;DHT22;64127;51.488;5.462;2024-03-02T04:53:26;8.50;99.90
75430;DHT22;64127;51.488;5.462;2024-03-02T04:55:58;8.50;99.90
75430;DHT22;64127;51.488;5.462;2024-03-02T04:58:50;8.60;99.90
75430;DHT22;64127;51.488;5.462;2024-03-02T05:01:22;8.50;99.90
75430;DHT22;64127;51.488;5.462;2024-03-02T05:03:54;8.60;99.90
75430;DHT22;64127;51.488;5.462;2024-03-02T05:06:26;8.50;99.90
75430;DHT22;64127;51.488;5.462;2024-03-02T05:08:58;8.50;99.90
75430;DHT22;64127;51.488;5.462;2024-03-02T05:11:30;8.60;99.90
75430;DHT22;64127;51.488;5.462;2024-03-02T05:14:08;8.60;99.90
75430;DHT22;64127;51.488;5.462;2024-03-02T05:16:41;8.50;99.90
75430;DHT22;64127;51.488;5.462;2024-03-02T05:19:15;8.50;99.90
75430;DHT22;64127;51.488;5.462;2024-03-02T05:21:47;8.40;99.90
75430;DHT22;64127;51.488;5.462;2024-03-02T05:24:20;8.40;99.90
75430;DHT22;64127;51.488;5.462;2024-03-02T05:26:52;8.40;99.90
75430;DHT22;64127;51.488;5.462;2024-03-02T05:29:25;8.40;99.90
75430;DHT22;64127;51.488;5.462;2024-03-02T05:31:57;8.40;99.90
75430;DHT22;64127;51.488;5.462;2024-03-02T05:34:29;8.40;99.90
75430;DHT22;64127;51.488;5.462;2024-03-02T05:37:02;8.40;99.90
75430;DHT22;64127;51.488;5.462;2024-03-02T05:39:34;8.40;99.90
75430;DHT22;64127;51.488;5.462;2024-03-02T05:42:06;8.40;99.90
75430;DHT22;64127;51.488;5.462;2024-03-02T05:44:38;8.40;99.90
75430;DHT22;64127;51.488;5.462;2024-03-02T05:47:10;8.50;99.90
75430;DHT22;64127;51.488;5.462;2024-03-02T05:49:42;8.40;99.90
75430;DHT22;64127;51.488;5.462;2024-03-02T05:52:15;8.50;99.90
75430;DHT22;64127;51.488;5.462;2024-03-02T05:54:47;8.40;99.90
75430;DHT22;64127;51.488;5.462;2024-03-02T05:57:20;8.40;99.90
75430;DHT22;64127;51.488;5.462;2024-03-02T06:00:11;8.40;99.90
75430;DHT22;64127;51.488;5.462;2024-03-02T06:02:43;8.40;99.90
75430;DHT22;64127;51.488;5.462;2024-03-02T06:05:15;8.40;99.90
75430;DHT22;64127;51.488;5.462;2024-03-02T06:07:49;8.40;99.90
75430;DHT22;64127;51.488;5.462;2024-03-02T06:10:21;8.40;99.90
75430;DHT22;64127;51.488;5.462;2024-03-02T06:12:53;8.40;99.90
75430;DHT22;64127;51.488;5.462;2024-03-02T06:15:26;8.40;99.90
75430;DHT22;64127;51.488;5.462;2024-03-02T06:17:58;8.50;99.90
75430;DHT22;64127;51.488;5.462;2024-03-02T06:20:30;8.40;99.90
75430;DHT22;64127;51.488;5.462;2024-03-02T06:23:07;8.40;99.90
75430;DHT22;64127;51.488;5.462;2024-03-02T06:25:39;8.40;99.90
75430;DHT22;64127;51.488;5.462;2024-03-02T06:28:11;8.40;99.90
75430;DHT22;64127;51.488;5.462;2024-03-02T06:30:43;8.30;99.90
75430;DHT22;64127;51.488;5.462;2024-03-02T06:33:15;8.40;99.90
75430;DHT22;64127;51.488;5.462;2024-03-02T06:35:48;8.30;99.90
75430;DHT22;64127;51.488;5.462;2024-03-02T06:38:20;8.30;99.90
75430;DHT22;64127;51.488;5.462;2024-03-02T06:40:52;8.30;99.90
75430;DHT22;64127;51.488;5.462;2024-03-02T06:43:25;8.30;99.90
75430;DHT22;64127;51.488;5.462;2024-03-02T06:45:56;8.30;99.90
75430;DHT22;64127;51.488;5.462;2024-03-02T06:48:29;8.30;99.90
75430;DHT22;64127;51.488;5.462;2024-03-02T06:51:02;8.30;99.90
75430;DHT22;64127;51.488;5.462;2024-03-02T06:53:34;8.30;99.90
75430;DHT22;64127;51.488;5.462;2024-03-02T06:56:07;8.40;99.90
75430;DHT22;64127;51.488;5.462;2024-03-02T06:58:40;8.40;99.90
75430;DHT22;64127;51.488;5.462;2024-03-02T07:01:12;8.40;99.90
75430;DHT22;64127;51.488;5.462;2024-03-02T07:03:44;8.40;99.90
75430;DHT22;64127;51.488;5.462;2024-03-02T07:06:16;8.40;99.90
75430;DHT22;64127;51.488;5.462;2024-03-02T07:08:48;8.50;99.90
75430;DHT22;64127;51.488;5.462;2024-03-02T07:11:20;8.50;99.90
75430;DHT22;64127;51.488;5.462;2024-03-02T07:13:52;8.50;99.90
75430;DHT22;64127;51.488;5.462;2024-03-02T07:16:25;8.50;99.90
75430;DHT22;64127;51.488;5.462;2024-03-02T07:19:01;8.60;99.90
75430;DHT22;64127;51.488;5.462;2024-03-02T07:21:34;8.70;99.90
75430;DHT22;64127;51.488;5.462;2024-03-02T07:24:06;8.80;99.90
75430;DHT22;64127;51.488;5.462;2024-03-02T07:26:41;8.90;99.90
75430;DHT22;64127;51.488;5.462;2024-03-02T07:29:16;9.00;99.90
75430;DHT22;64127;51.488;5.462;2024-03-02T07:31:48;9.00;99.90
75430;DHT22;64127;51.488;5.462;2024-03-02T07:34:20;9.00;99.90
75430;DHT22;64127;51.488;5.462;2024-03-02T07:36:53;9.00;99.90
75430;DHT22;64127;51.488;5.462;2024-03-02T07:39:25;9.10;99.90
75430;DHT22;64127;51.488;5.462;2024-03-02T07:41:58;9.10;99.90
75430;DHT22;64127;51.488;5.462;2024-03-02T07:44:31;9.10;99.90
75430;DHT22;64127;51.488;5.462;2024-03-02T07:47:03;9.10;99.90
75430;DHT22;64127;51.488;5.462;2024-03-02T07:49:36;9.00;99.90
75430;DHT22;64127;51.488;5.462;2024-03-02T07:52:08;9.00;99.90
75430;DHT22;64127;51.488;5.462;2024-03-02T07:54:40;9.00;99.90
75430;DHT22;64127;51.488;5.462;2024-03-02T07:57:12;9.00;99.90
75430;DHT22;64127;51.488;5.462;2024-03-02T07:59:44;9.00;99.90
75430;DHT22;64127;51.488;5.462;2024-03-02T08:02:16;8.90;99.90
75430;DHT22;64127;51.488;5.462;2024-03-02T08:04:49;9.00;99.90
75430;DHT22;64127;51.488;5.462;2024-03-02T08:07:21;9.00;99.90
75430;DHT22;64127;51.488;5.462;2024-03-02T08:09:54;9.00;99.90
75430;DHT22;64127;51.488;5.462;2024-03-02T08:12:27;9.00;99.90
75430;DHT22;64127;51.488;5.462;2024-03-02T08:14:59;9.10;99.90
75430;DHT22;64127;51.488;5.462;2024-03-02T08:17:31;9.40;99.90
75430;DHT22;64127;51.488;5.462;2024-03-02T08:20:06;9.60;99.90
75430;DHT22;64127;51.488;5.462;2024-03-02T08:22:40;9.70;99.90
75430;DHT22;64127;51.488;5.462;2024-03-02T08:25:12;9.90;99.90
75430;DHT22;64127;51.488;5.462;2024-03-02T08:27:44;10.10;99.90
75430;DHT22;64127;51.488;5.462;2024-03-02T08:30:16;10.30;99.90
75430;DHT22;64127;51.488;5.462;2024-03-02T08:32:50;10.50;99.90
75430;DHT22;64127;51.488;5.462;2024-03-02T08:35:22;10.60;99.90
75430;DHT22;64127;51.488;5.462;2024-03-02T08:37:54;10.70;99.90
75430;DHT22;64127;51.488;5.462;2024-03-02T08:40:27;10.80;99.90
75430;DHT22;64127;51.488;5.462;2024-03-02T08:42:59;10.80;99.90
75430;DHT22;64127;51.488;5.462;2024-03-02T08:45:31;10.90;99.90
75430;DHT22;64127;51.488;5.462;2024-03-02T08:48:04;11.00;99.90
75430;DHT22;64127;51.488;5.462;2024-03-02T08:50:36;11.20;99.90
75430;DHT22;64127;51.488;5.462;2024-03-02T08:53:09;11.30;99.90
75430;DHT22;64127;51.488;5.462;2024-03-02T08:55:41;11.50;99.90
75430;DHT22;64127;51.488;5.462;2024-03-02T08:58:13;11.60;99.90
75430;DHT22;64127;51.488;5.462;2024-03-02T09:00:46;11.60;99.90
75430;DHT22;64127;51.488;5.462;2024-03-02T09:03:19;11.80;99.90
75430;DHT22;64127;51.488;5.462;2024-03-02T09:05:51;11.80;99.90
75430;DHT22;64127;51.488;5.462;2024-03-02T09:08:23;11.90;99.90
75430;DHT22;64127;51.488;5.462;2024-03-02T09:10:56;12.00;99.90
75430;DHT22;64127;51.488;5.462;2024-03-02T09:13:29;12.00;99.90
75430;DHT22;64127;51.488;5.462;2024-03-02T09:16:02;12.00;99.90
75430;DHT22;64127;51.488;5.462;2024-03-02T09:18:34;12.00;99.90
75430;DHT22;64127;51.488;5.462;2024-03-02T09:21:06;12.10;99.90
75430;DHT22;64127;51.488;5.462;2024-03-02T09:23:39;12.20;99.90
75430;DHT22;64127;51.488;5.462;2024-03-02T09:26:12;12.20;99.90
75430;DHT22;64127;51.488;5.462;2024-03-02T09:28:44;12.30;99.90
75430;DHT22;64127;51.488;5.462;2024-03-02T09:31:16;12.30;99.90
75430;DHT22;64127;51.488;5.462;2024-03-02T09:33:48;12.30;99.90
75430;DHT22;64127;51.488;5.462;2024-03-02T09:36:22;12.40;99.90
75430;DHT22;64127;51.488;5.462;2024-03-02T09:38:55;12.50;99.90
75430;DHT22;64127;51.488;5.462;2024-03-02T09:41:27;12.60;99.90
75430;DHT22;64127;51.488;5.462;2024-03-02T09:43:59;12.60;99.90
75430;DHT22;64127;51.488;5.462;2024-03-02T09:46:32;12.70;99.90
75430;DHT22;64127;51.488;5.462;2024-03-02T09:49:04;12.70;99.90
75430;DHT22;64127;51.488;5.462;2024-03-02T09:51:40;12.70;99.90
75430;DHT22;64127;51.488;5.462;2024-03-02T09:54:21;12.80;99.90
75430;DHT22;64127;51.488;5.462;2024-03-02T09:56:54;12.90;99.90
75430;DHT22;64127;51.488;5.462;2024-03-02T09:59:26;13.00;99.90
75430;DHT22;64127;51.488;5.462;2024-03-02T10:02:01;13.10;99.90
75430;DHT22;64127;51.488;5.462;2024-03-02T10:04:34;13.20;99.90
75430;DHT22;64127;51.488;5.462;2024-03-02T10:07:13;13.30;99.70
75430;DHT22;64127;51.488;5.462;2024-03-02T10:09:49;13.20;99.40
75430;DHT22;64127;51.488;5.462;2024-03-02T10:12:21;13.30;99.00
75430;DHT22;64127;51.488;5.462;2024-03-02T10:15:03;13.40;98.70
75430;DHT22;64127;51.488;5.462;2024-03-02T10:17:36;13.50;98.30
75430;DHT22;64127;51.488;5.462;2024-03-02T10:20:25;13.60;98.00
75430;DHT22;64127;51.488;5.462;2024-03-02T10:23:14;13.80;97.60
75430;DHT22;64127;51.488;5.462;2024-03-02T10:25:47;13.90;97.10
75430;DHT22;64127;51.488;5.462;2024-03-02T10:28:28;14.00;96.60
75430;DHT22;64127;51.488;5.462;2024-03-02T10:31:02;14.10;95.90
75430;DHT22;64127;51.488;5.462;2024-03-02T10:33:34;14.10;95.50
75430;DHT22;64127;51.488;5.462;2024-03-02T10:36:07;14.20;94.90
75430;DHT22;64127;51.488;5.462;2024-03-02T10:38:41;14.30;94.40
75430;DHT22;64127;51.488;5.462;2024-03-02T10:41:17;14.40;93.80
75430;DHT22;64127;51.488;5.462;2024-03-02T10:43:53;14.50;93.40
75430;DHT22;64127;51.488;5.462;2024-03-02T10:46:32;14.50;92.80
75430;DHT22;64127;51.488;5.462;2024-03-02T10:49:05;14.40;92.70
75430;DHT22;64127;51.488;5.462;2024-03-02T10:51:40;14.60;92.70
75430;DHT22;64127;51.488;5.462;2024-03-02T10:54:12;14.70;92.00
75430;DHT22;64127;51.488;5.462;2024-03-02T10:56:46;14.80;91.70
75430;DHT22;64127;51.488;5.462;2024-03-02T10:59:35;14.90;91.20
75430;DHT22;64127;51.488;5.462;2024-03-02T11:02:11;15.00;90.70
75430;DHT22;64127;51.488;5.462;2024-03-02T11:04:46;15.00;90.60
75430;DHT22;64127;51.488;5.462;2024-03-02T11:07:21;15.10;90.40
75430;DHT22;64127;51.488;5.462;2024-03-02T11:09:59;15.10;90.10
75430;DHT22;64127;51.488;5.462;2024-03-02T11:13:09;15.10;89.60
75430;DHT22;64127;51.488;5.462;2024-03-02T11:15:44;15.20;89.30
75430;DHT22;64127;51.488;5.462;2024-03-02T11:18:16;15.30;88.90
75430;DHT22;64127;51.488;5.462;2024-03-02T11:20:49;15.40;87.90
75430;DHT22;64127;51.488;5.462;2024-03-02T11:23:32;15.50;87.10
75430;DHT22;64127;51.488;5.462;2024-03-02T11:26:20;15.50;86.50
75430;DHT22;64127;51.488;5.462;2024-03-02T11:28:55;15.60;85.70
75430;DHT22;64127;51.488;5.462;2024-03-02T11:31:57;15.50;85.70
75430;DHT22;64127;51.488;5.462;2024-03-02T11:34:36;15.40;85.50
75430;DHT22;64127;51.488;5.462;2024-03-02T11:37:12;15.30;85.40
75430;DHT22;64127;51.488;5.462;2024-03-02T11:39:45;15.30;85.70
75430;DHT22;64127;51.488;5.462;2024-03-02T11:42:18;15.40;85.80
75430;DHT22;64127;51.488;5.462;2024-03-02T11:44:51;15.50;85.60
75430;DHT22;64127;51.488;5.462;2024-03-02T11:47:23;15.70;84.90
75430;DHT22;64127;51.488;5.462;2024-03-02T11:49:55;15.80;84.10
75430;DHT22;64127;51.488;5.462;2024-03-02T11:52:28;15.90;83.70
75430;DHT22;64127;51.488;5.462;2024-03-02T11:55:02;15.90;83.00
75430;DHT22;64127;51.488;5.462;2024-03-02T11:57:37;15.90;83.10
75430;DHT22;64127;51.488;5.462;2024-03-02T12:00:17;16.00;82.80
75430;DHT22;64127;51.488;5.462;2024-03-02T12:03:07;16.00;82.20
75430;DHT22;64127;51.488;5.462;2024-03-02T12:05:40;16.10;82.00
75430;DHT22;64127;51.488;5.462;2024-03-02T12:08:14;16.20;82.10
75430;DHT22;64127;51.488;5.462;2024-03-02T12:11:00;16.30;82.10
75430;DHT22;64127;51.488;5.462;2024-03-02T12:13:35;16.30;81.60
75430;DHT22;64127;51.488;5.462;2024-03-02T12:16:07;16.20;81.90
75430;DHT22;64127;51.488;5.462;2024-03-02T12:18:41;16.10;81.80
75430;DHT22;64127;51.488;5.462;2024-03-02T12:21:15;16.20;82.00
75430;DHT22;64127;51.488;5.462;2024-03-02T12:23:47;16.30;81.80
75430;DHT22;64127;51.488;5.462;2024-03-02T12:26:22;16.30;81.30
75430;DHT22;64127;51.488;5.462;2024-03-02T12:28:54;16.20;81.30
75430;DHT22;64127;51.488;5.462;2024-03-02T12:31:26;16.20;81.70
75430;DHT22;64127;51.488;5.462;2024-03-02T12:33:59;16.20;81.20
75430;DHT22;64127;51.488;5.462;2024-03-02T12:36:38;16.10;80.90
75430;DHT22;64127;51.488;5.462;2024-03-02T12:39:11;16.10;80.90
75430;DHT22;64127;51.488;5.462;2024-03-02T12:41:43;16.20;81.20
75430;DHT22;64127;51.488;5.462;2024-03-02T12:44:15;16.30;80.50
75430;DHT22;64127;51.488;5.462;2024-03-02T12:46:47;16.30;79.60
75430;DHT22;64127;51.488;5.462;2024-03-02T12:49:22;16.30;79.30
75430;DHT22;64127;51.488;5.462;2024-03-02T12:51:54;16.40;79.30
75430;DHT22;64127;51.488;5.462;2024-03-02T12:54:26;16.40;79.30
75430;DHT22;64127;51.488;5.462;2024-03-02T12:56:59;16.60;78.80
75430;DHT22;64127;51.488;5.462;2024-03-02T12:59:32;16.80;78.40
75430;DHT22;64127;51.488;5.462;2024-03-02T13:02:04;17.00;78.20
75430;DHT22;64127;51.488;5.462;2024-03-02T13:04:37;17.30;77.80
75430;DHT22;64127;51.488;5.462;2024-03-02T13:07:13;17.50;76.40
75430;DHT22;64127;51.488;5.462;2024-03-02T13:09:45;17.70;75.90
75430;DHT22;64127;51.488;5.462;2024-03-02T13:12:19;17.80;75.30
75430;DHT22;64127;51.488;5.462;2024-03-02T13:14:54;17.80;74.70
75430;DHT22;64127;51.488;5.462;2024-03-02T13:17:27;17.60;74.40
75430;DHT22;64127;51.488;5.462;2024-03-02T13:20:05;17.50;74.60
75430;DHT22;64127;51.488;5.462;2024-03-02T13:22:42;17.50;74.60
75430;DHT22;64127;51.488;5.462;2024-03-02T13:25:14;17.50;74.40
75430;DHT22;64127;51.488;5.462;2024-03-02T13:27:47;17.70;74.10
75430;DHT22;64127;51.488;5.462;2024-03-02T13:30:19;17.90;73.60
75430;DHT22;64127;51.488;5.462;2024-03-02T13:32:51;18.00;72.70
75430;DHT22;64127;51.488;5.462;2024-03-02T13:35:23;18.00;72.30
75430;DHT22;64127;51.488;5.462;2024-03-02T13:37:55;17.90;71.60
75430;DHT22;64127;51.488;5.462;2024-03-02T13:40:27;17.80;71.40
75430;DHT22;64127;51.488;5.462;2024-03-02T13:43:02;17.70;71.40
75430;DHT22;64127;51.488;5.462;2024-03-02T13:45:35;17.60;71.20
75430;DHT22;64127;51.488;5.462;2024-03-02T13:48:08;17.60;71.30
75430;DHT22;64127;51.488;5.462;2024-03-02T13:50:40;17.80;71.20
75430;DHT22;64127;51.488;5.462;2024-03-02T13:53:12;18.00;70.80
75430;DHT22;64127;51.488;5.462;2024-03-02T13:55:45;18.30;70.20
75430;DHT22;64127;51.488;5.462;2024-03-02T13:58:17;18.50;69.20
75430;DHT22;64127;51.488;5.462;2024-03-02T14:00:50;18.70;68.50
75430;DHT22;64127;51.488;5.462;2024-03-02T14:03:22;18.90;68.00
75430;DHT22;64127;51.488;5.462;2024-03-02T14:05:56;19.10;67.30
75430;DHT22;64127;51.488;5.462;2024-03-02T14:08:29;19.10;67.90
75430;DHT22;64127;51.488;5.462;2024-03-02T14:11:01;19.30;67.00
75430;DHT22;64127;51.488;5.462;2024-03-02T14:13:34;19.50;66.40
75430;DHT22;64127;51.488;5.462;2024-03-02T14:16:06;19.50;65.90
75430;DHT22;64127;51.488;5.462;2024-03-02T14:18:38;19.60;65.90
75430;DHT22;64127;51.488;5.462;2024-03-02T14:21:11;19.60;65.00
75430;DHT22;64127;51.488;5.462;2024-03-02T14:23:45;19.50;64.70
75430;DHT22;64127;51.488;5.462;2024-03-02T14:26:17;19.30;64.90
75430;DHT22;64127;51.488;5.462;2024-03-02T14:28:51;19.40;65.20
75430;DHT22;64127;51.488;5.462;2024-03-02T14:31:25;19.50;65.00
75430;DHT22;64127;51.488;5.462;2024-03-02T14:33:57;19.60;64.30
75430;DHT22;64127;51.488;5.462;2024-03-02T14:36:30;19.60;64.20
75430;DHT22;64127;51.488;5.462;2024-03-02T14:39:02;19.60;64.40
75430;DHT22;64127;51.488;5.462;2024-03-02T14:41:36;19.70;64.10
75430;DHT22;64127;51.488;5.462;2024-03-02T14:44:09;19.90;63.70
75430;DHT22;64127;51.488;5.462;2024-03-02T14:46:41;20.30;63.50
75430;DHT22;64127;51.488;5.462;2024-03-02T14:49:15;20.40;62.50
75430;DHT22;64127;51.488;5.462;2024-03-02T14:51:47;20.30;61.90
75430;DHT22;64127;51.488;5.462;2024-03-02T14:54:21;20.00;62.10
75430;DHT22;64127;51.488;5.462;2024-03-02T14:56:54;19.90;62.10
75430;DHT22;64127;51.488;5.462;2024-03-02T14:59:26;19.80;62.10
75430;DHT22;64127;51.488;5.462;2024-03-02T15:01:59;19.80;62.20
75430;DHT22;64127;51.488;5.462;2024-03-02T15:04:32;19.70;61.70
75430;DHT22;64127;51.488;5.462;2024-03-02T15:07:04;19.20;62.30
75430;DHT22;64127;51.488;5.462;2024-03-02T15:09:36;18.50;63.20
75430;DHT22;64127;51.488;5.462;2024-03-02T15:12:09;18.00;64.50
75430;DHT22;64127;51.488;5.462;2024-03-02T15:14:44;17.60;65.70
75430;DHT22;64127;51.488;5.462;2024-03-02T15:17:19;17.30;66.30
75430;DHT22;64127;51.488;5.462;2024-03-02T15:19:51;17.10;66.90
75430;DHT22;64127;51.488;5.462;2024-03-02T15:22:23;16.90;67.00
75430;DHT22;64127;51.488;5.462;2024-03-02T15:24:56;16.70;67.30
75430;DHT22;64127;51.488;5.462;2024-03-02T15:27:29;16.60;67.80
75430;DHT22;64127;51.488;5.462;2024-03-02T15:30:02;16.40;68.20
75430;DHT22;64127;51.488;5.462;2024-03-02T15:32:34;16.30;68.40
75430;DHT22;64127;51.488;5.462;2024-03-02T15:35:08;16.30;69.00
75430;DHT22;64127;51.488;5.462;2024-03-02T15:37:41;16.40;69.10
75430;DHT22;64127;51.488;5.462;2024-03-02T15:40:13;16.50;68.90
75430;DHT22;64127;51.488;5.462;2024-03-02T15:42:45;16.50;69.00
75430;DHT22;64127;51.488;5.462;2024-03-02T15:45:17;16.50;69.20
75430;DHT22;64127;51.488;5.462;2024-03-02T15:47:49;16.40;69.20
75430;DHT22;64127;51.488;5.462;2024-03-02T15:50:21;16.30;69.30
75430;DHT22;64127;51.488;5.462;2024-03-02T15:52:53;16.20;69.40
75430;DHT22;64127;51.488;5.462;2024-03-02T15:55:28;16.10;69.70
75430;DHT22;64127;51.488;5.462;2024-03-02T15:58:01;16.00;70.00
75430;DHT22;64127;51.488;5.462;2024-03-02T16:00:37;15.90;70.50
75430;DHT22;64127;51.488;5.462;2024-03-02T16:03:09;15.80;70.60
75430;DHT22;64127;51.488;5.462;2024-03-02T16:05:41;15.70;71.00
75430;DHT22;64127;51.488;5.462;2024-03-02T16:08:13;15.70;71.20
75430;DHT22;64127;51.488;5.462;2024-03-02T16:10:45;15.60;71.40
75430;DHT22;64127;51.488;5.462;2024-03-02T16:13:17;15.50;71.70
75430;DHT22;64127;51.488;5.462;2024-03-02T16:15:49;15.50;72.00
75430;DHT22;64127;51.488;5.462;2024-03-02T16:18:22;15.50;72.40
75430;DHT22;64127;51.488;5.462;2024-03-02T16:20:54;15.40;72.60